sensor_id;sensor_type;location;lat;lon;timestamp;temperature;humidity
17994;DHT22;9122;48.406;9.984;2023-12-29T00:02:20;7.70;99.90
17994;DHT22;9122;48.406;9.984;2023-12-29T00:05:05;7.60;99.90
17994;DHT22;9122;48.406;9.984;2023-12-29T00:07:50;7.70;99.90
17994;DHT22;9122;48.406;9.984;2023-12-29T00:10:34;7.70;99.90
17994;DHT22;9122;48.406;9.984;2023-12-29T00:13:19;7.60;99.90
17994;DHT22;9122;48.406;9.984;2023-12-29T00:16:06;7.70;99.90
17994;DHT22;9122;48.406;9.984;2023-12-29T00:18:51;9.20;99.90
17994;DHT22;9122;48.406;9.984;2023-12-29T00:21:36;7.60;99.90
17994;DHT22;9122;48.406;9.984;2023-12-29T00:27:05;7.60;99.90
17994;DHT22;9122;48.406;9.984;2023-12-29T00:29:49;7.60;99.90
17994;DHT22;9122;48.406;9.984;2023-12-29T00:32:33;7.60;99.90
17994;DHT22;9122;48.406;9.984;2023-12-29T00:35:17;7.60;99.90
17994;DHT22;9122;48.406;9.984;2023-12-29T00:38:02;7.60;99.90
17994;DHT22;9122;48.406;9.984;2023-12-29T00:40:47;7.60;99.90
17994;DHT22;9122;48.406;9.984;2023-12-29T00:43:31;7.60;99.90
17994;DHT22;9122;48.406;9.984;2023-12-29T00:46:52;7.70;99.90
17994;DHT22;9122;48.406;9.984;2023-12-29T00:49:44;8.60;99.90
17994;DHT22;9122;48.406;9.984;2023-12-29T00:55:13;7.60;99.90
17994;DHT22;9122;48.406;9.984;2023-12-29T00:57:57;7.60;99.90
17994;DHT22;9122;48.406;9.984;2023-12-29T01:03:27;7.60;99.90
17994;DHT22;9122;48.406;9.984;2023-12-29T01:06:11;7.80;99.90
17994;DHT22;9122;48.406;9.984;2023-12-29T01:08:55;7.60;99.90
17994;DHT22;9122;48.406;9.984;2023-12-29T01:11:40;7.60;99.90
17994;DHT22;9122;48.406;9.984;2023-12-29T01:17:09;7.60;99.90
17994;DHT22;9122;48.406;9.984;2023-12-29T01:19:53;7.60;99.90
17994;DHT22;9122;48.406;9.984;2023-12-29T01:22:38;7.60;99.90
17994;DHT22;9122;48.406;9.984;2023-12-29T01:25:22;7.60;99.90
17994;DHT22;9122;48.406;9.984;2023-12-29T01:28:08;7.60;99.90
17994;DHT22;9122;48.406;9.984;2023-12-29T01:30:52;7.60;99.90
17994;DHT22;9122;48.406;9.984;2023-12-29T01:33:36;7.60;99.90
17994;DHT22;9122;48.406;9.984;2023-12-29T01:36:21;7.60;99.90
17994;DHT22;9122;48.406;9.984;2023-12-29T01:39:05;7.60;99.90
17994;DHT22;9122;48.406;9.984;2023-12-29T01:41:50;7.60;99.90
17994;DHT22;9122;48.406;9.984;2023-12-29T01:44:34;7.60;99.90
17994;DHT22;9122;48.406;9.984;2023-12-29T01:47:20;8.00;99.90
17994;DHT22;9122;48.406;9.984;2023-12-29T01:50:05;7.60;99.90
17994;DHT22;9122;48.406;9.984;2023-12-29T01:52:50;7.60;99.90
17994;DHT22;9122;48.406;9.984;2023-12-29T01:58:20;7.60;99.90
17994;DHT22;9122;48.406;9.984;2023-12-29T02:01:04;7.60;99.90
17994;DHT22;9122;48.406;9.984;2023-12-29T02:03:50;7.60;99.90
17994;DHT22;9122;48.406;9.984;2023-12-29T02:06:35;7.30;99.90
17994;DHT22;9122;48.406;9.984;2023-12-29T02:09:21;7.00;99.90
17994;DHT22;9122;48.406;9.984;2023-12-29T02:12:05;7.50;99.90
17994;DHT22;9122;48.406;9.984;2023-12-29T02:14:49;7.50;99.90
17994;DHT22;9122;48.406;9.984;2023-12-29T02:17:43;7.50;99.90
17994;DHT22;9122;48.406;9.984;2023-12-29T02:23:14;7.60;99.90
17994;DHT22;9122;48.406;9.984;2023-12-29T02:26:02;7.60;99.90
17994;DHT22;9122;48.406;9.984;2023-12-29T02:28:55;7.50;99.90
17994;DHT22;9122;48.406;9.984;2023-12-29T02:31:43;7.50;99.90
17994;DHT22;9122;48.406;9.984;2023-12-29T02:34:29;7.60;99.90
17994;DHT22;9122;48.406;9.984;2023-12-29T02:37:16;7.60;99.90
17994;DHT22;9122;48.406;9.984;2023-12-29T02:40:01;7.60;99.90
17994;DHT22;9122;48.406;9.984;2023-12-29T02:42:47;7.60;99.90
17994;DHT22;9122;48.406;9.984;2023-12-29T02:48:16;7.60;99.90
17994;DHT22;9122;48.406;9.984;2023-12-29T02:51:00;7.60;99.90
17994;DHT22;9122;48.406;9.984;2023-12-29T02:53:44;7.60;99.90
17994;DHT22;9122;48.406;9.984;2023-12-29T02:56:30;7.60;99.90
17994;DHT22;9122;48.406;9.984;2023-12-29T02:59:14;7.60;99.90
17994;DHT22;9122;48.406;9.984;2023-12-29T03:04:43;7.50;99.90
17994;DHT22;9122;48.406;9.984;2023-12-29T03:07:27;7.60;99.90
17994;DHT22;9122;48.406;9.984;2023-12-29T03:10:12;7.50;99.90
17994;DHT22;9122;48.406;9.984;2023-12-29T03:12:56;7.50;99.90
17994;DHT22;9122;48.406;9.984;2023-12-29T03:15:40;7.60;99.90
17994;DHT22;9122;48.406;9.984;2023-12-29T03:18:25;7.50;99.90
17994;DHT22;9122;48.406;9.984;2023-12-29T03:21:09;7.50;99.90
17994;DHT22;9122;48.406;9.984;2023-12-29T03:26:38;7.50;99.90
17994;DHT22;9122;48.406;9.984;2023-12-29T03:29:22;7.50;99.90
17994;DHT22;9122;48.406;9.984;2023-12-29T03:32:06;8.10;99.90
17994;DHT22;9122;48.406;9.984;2023-12-29T03:34:51;7.50;99.90
17994;DHT22;9122;48.406;9.984;2023-12-29T03:37:35;7.50;99.90
17994;DHT22;9122;48.406;9.984;2023-12-29T03:40:19;8.70;99.90
17994;DHT22;9122;48.406;9.984;2023-12-29T03:43:04;7.40;99.90
17994;DHT22;9122;48.406;9.984;2023-12-29T03:48:33;7.40;99.90
17994;DHT22;9122;48.406;9.984;2023-12-29T03:51:17;7.40;99.90
17994;DHT22;9122;48.406;9.984;2023-12-29T03:54:02;7.40;99.90
17994;DHT22;9122;48.406;9.984;2023-12-29T03:56:47;7.40;99.90
17994;DHT22;9122;48.406;9.984;2023-12-29T03:59:32;7.40;99.90
17994;DHT22;9122;48.406;9.984;2023-12-29T04:02:16;7.50;99.90
17994;DHT22;9122;48.406;9.984;2023-12-29T04:05:01;7.00;99.90
17994;DHT22;9122;48.406;9.984;2023-12-29T04:07:46;7.30;99.90
17994;DHT22;9122;48.406;9.984;2023-12-29T04:10:30;7.30;99.90
17994;DHT22;9122;48.406;9.984;2023-12-29T04:13:14;6.70;99.90
17994;DHT22;9122;48.406;9.984;2023-12-29T04:15:59;7.30;99.90
17994;DHT22;9122;48.406;9.984;2023-12-29T04:18:43;7.90;99.90
17994;DHT22;9122;48.406;9.984;2023-12-29T04:21:28;7.30;99.90
17994;DHT22;9122;48.406;9.984;2023-12-29T04:24:13;7.30;99.90
17994;DHT22;9122;48.406;9.984;2023-12-29T04:26:57;8.00;99.90
17994;DHT22;9122;48.406;9.984;2023-12-29T04:32:25;7.20;99.90
17994;DHT22;9122;48.406;9.984;2023-12-29T04:35:10;7.30;99.90
17994;DHT22;9122;48.406;9.984;2023-12-29T04:37:57;7.20;99.90
17994;DHT22;9122;48.406;9.984;2023-12-29T04:40:41;7.20;99.90
17994;DHT22;9122;48.406;9.984;2023-12-29T04:43:26;7.30;99.90
17994;DHT22;9122;48.406;9.984;2023-12-29T04:46:10;7.40;99.90
17994;DHT22;9122;48.406;9.984;2023-12-29T04:48:54;7.20;99.90
17994;DHT22;9122;48.406;9.984;2023-12-29T04:51:38;7.10;99.90
17994;DHT22;9122;48.406;9.984;2023-12-29T04:54:24;7.30;99.90
17994;DHT22;9122;48.406;9.984;2023-12-29T04:59:53;7.20;99.90
17994;DHT22;9122;48.406;9.984;2023-12-29T05:05:23;7.10;99.90
17994;DHT22;9122;48.406;9.984;2023-12-29T05:08:07;7.20;99.90
17994;DHT22;9122;48.406;9.984;2023-12-29T05:10:52;7.90;99.90
17994;DHT22;9122;48.406;9.984;2023-12-29T05:13:36;7.30;99.90
17994;DHT22;9122;48.406;9.984;2023-12-29T05:16:20;7.00;99.90
17994;DHT22;9122;48.406;9.984;2023-12-29T05:19:05;7.10;99.90
17994;DHT22;9122;48.406;9.984;2023-12-29T05:27:20;7.10;99.90
17994;DHT22;9122;48.406;9.984;2023-12-29T05:30:05;7.10;99.90
17994;DHT22;9122;48.406;9.984;2023-12-29T05:32:50;7.10;99.90
17994;DHT22;9122;48.406;9.984;2023-12-29T05:35:37;8.20;99.90
17994;DHT22;9122;48.406;9.984;2023-12-29T05:38:22;7.10;99.90
17994;DHT22;9122;48.406;9.984;2023-12-29T05:41:07;7.10;99.90
17994;DHT22;9122;48.406;9.984;2023-12-29T05:43:51;7.10;99.90
17994;DHT22;9122;48.406;9.984;2023-12-29T05:46:36;7.20;99.90
17994;DHT22;9122;48.406;9.984;2023-12-29T05:49:25;7.10;99.90
17994;DHT22;9122;48.406;9.984;2023-12-29T05:55:09;7.10;99.90
17994;DHT22;9122;48.406;9.984;2023-12-29T05:57:57;7.20;99.90
17994;DHT22;9122;48.406;9.984;2023-12-29T06:09:13;7.10;99.90
17994;DHT22;9122;48.406;9.984;2023-12-29T06:14:48;7.10;99.90
17994;DHT22;9122;48.406;9.984;2023-12-29T06:26:27;7.10;99.90
17994;DHT22;9122;48.406;9.984;2023-12-29T06:40:11;7.00;99.90
17994;DHT22;9122;48.406;9.984;2023-12-29T06:53:58;7.00;99.90
17994;DHT22;9122;48.406;9.984;2023-12-29T07:02:13;7.00;99.90
17994;DHT22;9122;48.406;9.984;2023-12-29T07:04:57;7.00;99.90
17994;DHT22;9122;48.406;9.984;2023-12-29T07:07:41;7.00;99.90
17994;DHT22;9122;48.406;9.984;2023-12-29T07:10:26;7.00;99.90
17994;DHT22;9122;48.406;9.984;2023-12-29T07:15:55;7.00;99.90
17994;DHT22;9122;48.406;9.984;2023-12-29T07:18:39;7.00;99.90
17994;DHT22;9122;48.406;9.984;2023-12-29T07:21:25;7.00;99.90
17994;DHT22;9122;48.406;9.984;2023-12-29T07:24:09;7.00;99.90
17994;DHT22;9122;48.406;9.984;2023-12-29T07:26:54;7.00;99.90
17994;DHT22;9122;48.406;9.984;2023-12-29T07:29:38;7.10;99.90
17994;DHT22;9122;48.406;9.984;2023-12-29T07:32:23;7.00;99.90
17994;DHT22;9122;48.406;9.984;2023-12-29T07:35:10;7.10;99.90
17994;DHT22;9122;48.406;9.984;2023-12-29T07:37:54;7.10;99.90
17994;DHT22;9122;48.406;9.984;2023-12-29T07:40:39;7.10;99.90
17994;DHT22;9122;48.406;9.984;2023-12-29T07:43:24;7.10;99.90
17994;DHT22;9122;48.406;9.984;2023-12-29T07:46:08;7.10;99.90
17994;DHT22;9122;48.406;9.984;2023-12-29T07:51:41;7.10;99.90
17994;DHT22;9122;48.406;9.984;2023-12-29T07:54:26;7.10;99.90
17994;DHT22;9122;48.406;9.984;2023-12-29T07:57:10;7.20;99.90
17994;DHT22;9122;48.406;9.984;2023-12-29T07:59:54;7.20;99.90
17994;DHT22;9122;48.406;9.984;2023-12-29T08:02:39;7.20;99.90
17994;DHT22;9122;48.406;9.984;2023-12-29T08:05:23;7.30;99.90
17994;DHT22;9122;48.406;9.984;2023-12-29T08:08:09;9.00;99.90
17994;DHT22;9122;48.406;9.984;2023-12-29T08:13:37;7.50;99.90
17994;DHT22;9122;48.406;9.984;2023-12-29T08:16:22;7.60;99.90
17994;DHT22;9122;48.406;9.984;2023-12-29T08:19:07;7.60;99.90
17994;DHT22;9122;48.406;9.984;2023-12-29T08:21:54;7.70;99.90
17994;DHT22;9122;48.406;9.984;2023-12-29T08:24:40;9.30;99.90
17994;DHT22;9122;48.406;9.984;2023-12-29T08:27:27;8.20;99.90
17994;DHT22;9122;48.406;9.984;2023-12-29T08:30:11;7.80;99.90
17994;DHT22;9122;48.406;9.984;2023-12-29T08:32:56;7.90;99.90
17994;DHT22;9122;48.406;9.984;2023-12-29T08:35:41;7.90;99.90
17994;DHT22;9122;48.406;9.984;2023-12-29T08:38:25;7.90;99.90
17994;DHT22;9122;48.406;9.984;2023-12-29T08:41:13;7.90;99.90
17994;DHT22;9122;48.406;9.984;2023-12-29T08:43:58;9.10;99.90
17994;DHT22;9122;48.406;9.984;2023-12-29T08:46:43;8.00;99.90
17994;DHT22;9122;48.406;9.984;2023-12-29T08:49:27;7.90;99.90
17994;DHT22;9122;48.406;9.984;2023-12-29T08:52:12;8.30;99.90
17994;DHT22;9122;48.406;9.984;2023-12-29T08:54:56;7.90;99.90
17994;DHT22;9122;48.406;9.984;2023-12-29T08:57:40;8.00;99.90
17994;DHT22;9122;48.406;9.984;2023-12-29T09:00:24;7.70;99.90
17994;DHT22;9122;48.406;9.984;2023-12-29T09:03:08;8.20;99.90
17994;DHT22;9122;48.406;9.984;2023-12-29T09:05:53;8.50;99.90
17994;DHT22;9122;48.406;9.984;2023-12-29T09:08:40;8.20;99.90
17994;DHT22;9122;48.406;9.984;2023-12-29T09:11:24;8.30;99.90
17994;DHT22;9122;48.406;9.984;2023-12-29T09:14:08;7.90;99.90
17994;DHT22;9122;48.406;9.984;2023-12-29T09:16:52;8.30;99.90
17994;DHT22;9122;48.406;9.984;2023-12-29T09:19:36;8.90;99.90
17994;DHT22;9122;48.406;9.984;2023-12-29T09:22:21;8.40;99.90
17994;DHT22;9122;48.406;9.984;2023-12-29T09:25:05;8.30;99.90
17994;DHT22;9122;48.406;9.984;2023-12-29T09:30:36;8.40;99.90
17994;DHT22;9122;48.406;9.984;2023-12-29T09:33:20;8.30;99.90
17994;DHT22;9122;48.406;9.984;2023-12-29T09:38:51;8.30;99.90
17994;DHT22;9122;48.406;9.984;2023-12-29T09:41:37;8.40;99.90
17994;DHT22;9122;48.406;9.984;2023-12-29T09:44:26;9.00;99.90
17994;DHT22;9122;48.406;9.984;2023-12-29T09:47:13;8.40;99.90
17994;DHT22;9122;48.406;9.984;2023-12-29T09:49:59;8.40;99.90
17994;DHT22;9122;48.406;9.984;2023-12-29T09:52:44;8.00;99.90
17994;DHT22;9122;48.406;9.984;2023-12-29T09:55:31;9.40;99.90
17994;DHT22;9122;48.406;9.984;2023-12-29T09:58:17;10.10;99.90
17994;DHT22;9122;48.406;9.984;2023-12-29T10:01:04;9.20;99.90
17994;DHT22;9122;48.406;9.984;2023-12-29T10:03:51;9.50;99.90
17994;DHT22;9122;48.406;9.984;2023-12-29T10:06:36;9.30;99.90
17994;DHT22;9122;48.406;9.984;2023-12-29T10:09:24;8.80;99.90
17994;DHT22;9122;48.406;9.984;2023-12-29T10:12:09;9.40;99.90
17994;DHT22;9122;48.406;9.984;2023-12-29T10:23:45;9.40;99.90
17994;DHT22;9122;48.406;9.984;2023-12-29T10:26:32;9.40;99.90
17994;DHT22;9122;48.406;9.984;2023-12-29T10:29:17;9.80;99.90
17994;DHT22;9122;48.406;9.984;2023-12-29T10:32:04;9.30;99.90
17994;DHT22;9122;48.406;9.984;2023-12-29T10:37:33;9.40;99.90
17994;DHT22;9122;48.406;9.984;2023-12-29T10:40:21;9.30;99.90
17994;DHT22;9122;48.406;9.984;2023-12-29T10:46:06;9.30;99.90
17994;DHT22;9122;48.406;9.984;2023-12-29T10:51:37;9.40;99.90
17994;DHT22;9122;48.406;9.984;2023-12-29T10:54:21;9.40;99.90
17994;DHT22;9122;48.406;9.984;2023-12-29T10:57:11;9.50;99.90
17994;DHT22;9122;48.406;9.984;2023-12-29T10:59:56;9.50;99.90
17994;DHT22;9122;48.406;9.984;2023-12-29T11:02:41;9.70;99.90
17994;DHT22;9122;48.406;9.984;2023-12-29T11:05:26;9.60;99.90
17994;DHT22;9122;48.406;9.984;2023-12-29T11:08:20;9.70;99.90
17994;DHT22;9122;48.406;9.984;2023-12-29T11:11:05;9.80;99.90
17994;DHT22;9122;48.406;9.984;2023-12-29T11:13:51;10.00;99.90
17994;DHT22;9122;48.406;9.984;2023-12-29T11:16:36;10.10;99.90
17994;DHT22;9122;48.406;9.984;2023-12-29T11:19:21;10.00;99.90
17994;DHT22;9122;48.406;9.984;2023-12-29T11:22:08;10.00;99.90
17994;DHT22;9122;48.406;9.984;2023-12-29T11:24:52;10.10;99.90
17994;DHT22;9122;48.406;9.984;2023-12-29T11:27:37;10.10;99.90
17994;DHT22;9122;48.406;9.984;2023-12-29T11:30:22;10.10;99.90
17994;DHT22;9122;48.406;9.984;2023-12-29T11:33:23;10.10;99.90
17994;DHT22;9122;48.406;9.984;2023-12-29T11:36:24;10.10;99.90
17994;DHT22;9122;48.406;9.984;2023-12-29T11:39:22;10.10;99.90
17994;DHT22;9122;48.406;9.984;2023-12-29T11:42:22;10.10;99.90
17994;DHT22;9122;48.406;9.984;2023-12-29T11:45:31;10.20;99.90
17994;DHT22;9122;48.406;9.984;2023-12-29T11:48:55;10.10;99.90
17994;DHT22;9122;48.406;9.984;2023-12-29T11:51:44;10.10;99.90
17994;DHT22;9122;48.406;9.984;2023-12-29T11:54:28;10.10;99.90
17994;DHT22;9122;48.406;9.984;2023-12-29T11:57:12;10.10;99.90
17994;DHT22;9122;48.406;9.984;2023-12-29T12:00:18;10.10;99.90
17994;DHT22;9122;48.406;9.984;2023-12-29T12:03:27;10.10;99.90
17994;DHT22;9122;48.406;9.984;2023-12-29T12:06:12;10.10;99.90
17994;DHT22;9122;48.406;9.984;2023-12-29T12:09:25;10.10;99.90
17994;DHT22;9122;48.406;9.984;2023-12-29T12:12:40;10.10;99.90
17994;DHT22;9122;48.406;9.984;2023-12-29T12:15:33;10.20;99.90
17994;DHT22;9122;48.406;9.984;2023-12-29T12:21:03;10.10;99.90
17994;DHT22;9122;48.406;9.984;2023-12-29T12:23:50;10.10;99.90
17994;DHT22;9122;48.406;9.984;2023-12-29T12:32:05;10.10;99.90
17994;DHT22;9122;48.406;9.984;2023-12-29T12:34:51;10.10;99.90
17994;DHT22;9122;48.406;9.984;2023-12-29T12:37:36;10.20;99.90
17994;DHT22;9122;48.406;9.984;2023-12-29T12:40:27;10.20;99.90
17994;DHT22;9122;48.406;9.984;2023-12-29T12:43:14;10.20;99.90
17994;DHT22;9122;48.406;9.984;2023-12-29T12:46:02;10.20;99.90
17994;DHT22;9122;48.406;9.984;2023-12-29T12:48:48;10.20;99.90
17994;DHT22;9122;48.406;9.984;2023-12-29T12:57:06;10.20;99.90
17994;DHT22;9122;48.406;9.984;2023-12-29T12:59:53;10.20;99.90
17994;DHT22;9122;48.406;9.984;2023-12-29T13:02:37;10.20;99.90
17994;DHT22;9122;48.406;9.984;2023-12-29T13:05:22;10.20;99.90
17994;DHT22;9122;48.406;9.984;2023-12-29T13:08:07;10.30;99.90
17994;DHT22;9122;48.406;9.984;2023-12-29T13:10:52;10.20;99.90
17994;DHT22;9122;48.406;9.984;2023-12-29T13:13:38;10.20;99.90
17994;DHT22;9122;48.406;9.984;2023-12-29T13:16:33;10.20;99.90
17994;DHT22;9122;48.406;9.984;2023-12-29T13:19:21;10.30;99.90
17994;DHT22;9122;48.406;9.984;2023-12-29T13:22:09;10.20;99.90
17994;DHT22;9122;48.406;9.984;2023-12-29T13:24:53;10.20;99.90
17994;DHT22;9122;48.406;9.984;2023-12-29T13:27:39;11.40;99.90
17994;DHT22;9122;48.406;9.984;2023-12-29T13:30:24;10.40;99.90
17994;DHT22;9122;48.406;9.984;2023-12-29T13:33:27;10.20;99.90
17994;DHT22;9122;48.406;9.984;2023-12-29T13:39:42;10.30;99.90
17994;DHT22;9122;48.406;9.984;2023-12-29T13:42:30;10.30;99.90
17994;DHT22;9122;48.406;9.984;2023-12-29T13:45:16;10.30;99.90
17994;DHT22;9122;48.406;9.984;2023-12-29T13:48:01;10.30;99.90
17994;DHT22;9122;48.406;9.984;2023-12-29T13:50:47;10.30;99.90
17994;DHT22;9122;48.406;9.984;2023-12-29T13:56:17;10.30;99.90
17994;DHT22;9122;48.406;9.984;2023-12-29T13:59:01;10.30;99.90
17994;DHT22;9122;48.406;9.984;2023-12-29T14:01:53;12.00;99.90
17994;DHT22;9122;48.406;9.984;2023-12-29T14:04:38;10.30;99.90
17994;DHT22;9122;48.406;9.984;2023-12-29T14:07:24;10.30;99.90
17994;DHT22;9122;48.406;9.984;2023-12-29T14:10:09;10.20;99.90
17994;DHT22;9122;48.406;9.984;2023-12-29T14:12:54;10.10;99.90
17994;DHT22;9122;48.406;9.984;2023-12-29T14:15:40;10.30;99.90
17994;DHT22;9122;48.406;9.984;2023-12-29T14:21:22;10.30;99.90
17994;DHT22;9122;48.406;9.984;2023-12-29T14:24:14;10.40;99.90
17994;DHT22;9122;48.406;9.984;2023-12-29T14:29:46;10.30;99.90
17994;DHT22;9122;48.406;9.984;2023-12-29T14:32:31;10.30;99.90
17994;DHT22;9122;48.406;9.984;2023-12-29T14:35:16;10.30;99.90
17994;DHT22;9122;48.406;9.984;2023-12-29T14:38:01;10.30;99.90
17994;DHT22;9122;48.406;9.984;2023-12-29T14:40:45;10.30;99.90
17994;DHT22;9122;48.406;9.984;2023-12-29T14:46:15;10.30;99.70
17994;DHT22;9122;48.406;9.984;2023-12-29T14:48:59;10.30;99.90
17994;DHT22;9122;48.406;9.984;2023-12-29T14:51:44;10.30;99.90
17994;DHT22;9122;48.406;9.984;2023-12-29T14:54:29;10.30;99.90
17994;DHT22;9122;48.406;9.984;2023-12-29T14:57:13;10.30;99.90
17994;DHT22;9122;48.406;9.984;2023-12-29T14:59:58;10.30;99.60
17994;DHT22;9122;48.406;9.984;2023-12-29T15:02:43;10.30;99.90
17994;DHT22;9122;48.406;9.984;2023-12-29T15:05:27;10.20;99.80
17994;DHT22;9122;48.406;9.984;2023-12-29T15:08:12;10.20;99.90
17994;DHT22;9122;48.406;9.984;2023-12-29T15:10:57;10.20;99.90
17994;DHT22;9122;48.406;9.984;2023-12-29T15:19:11;10.20;99.90
17994;DHT22;9122;48.406;9.984;2023-12-29T15:21:56;10.20;99.80
17994;DHT22;9122;48.406;9.984;2023-12-29T15:24:40;9.80;99.70
17994;DHT22;9122;48.406;9.984;2023-12-29T15:27:25;10.20;99.70
17994;DHT22;9122;48.406;9.984;2023-12-29T15:30:10;10.20;99.80
17994;DHT22;9122;48.406;9.984;2023-12-29T15:35:40;10.30;99.90
17994;DHT22;9122;48.406;9.984;2023-12-29T15:38:25;10.20;99.70
17994;DHT22;9122;48.406;9.984;2023-12-29T15:41:09;10.20;99.70
17994;DHT22;9122;48.406;9.984;2023-12-29T15:43:53;10.20;99.80
17994;DHT22;9122;48.406;9.984;2023-12-29T15:46:37;10.20;99.80
17994;DHT22;9122;48.406;9.984;2023-12-29T15:49:21;10.10;99.80
17994;DHT22;9122;48.406;9.984;2023-12-29T15:52:05;10.10;99.80
17994;DHT22;9122;48.406;9.984;2023-12-29T16:00:19;10.10;99.50
17994;DHT22;9122;48.406;9.984;2023-12-29T16:03:04;10.10;99.80
17994;DHT22;9122;48.406;9.984;2023-12-29T16:05:48;10.20;99.90
17994;DHT22;9122;48.406;9.984;2023-12-29T16:08:33;10.10;99.80
17994;DHT22;9122;48.406;9.984;2023-12-29T16:11:21;10.10;99.80
17994;DHT22;9122;48.406;9.984;2023-12-29T16:14:05;10.10;99.80
17994;DHT22;9122;48.406;9.984;2023-12-29T16:16:50;10.10;99.80
17994;DHT22;9122;48.406;9.984;2023-12-29T16:22:22;10.10;99.60
17994;DHT22;9122;48.406;9.984;2023-12-29T16:25:06;10.10;99.90
17994;DHT22;9122;48.406;9.984;2023-12-29T16:27:51;10.10;99.90
17994;DHT22;9122;48.406;9.984;2023-12-29T16:30:35;10.00;99.90
17994;DHT22;9122;48.406;9.984;2023-12-29T16:33:19;10.00;99.90
17994;DHT22;9122;48.406;9.984;2023-12-29T16:36:14;10.10;99.90
17994;DHT22;9122;48.406;9.984;2023-12-29T16:38:58;10.90;99.90
17994;DHT22;9122;48.406;9.984;2023-12-29T16:41:43;10.00;99.90
17994;DHT22;9122;48.406;9.984;2023-12-29T16:44:28;10.00;99.90
17994;DHT22;9122;48.406;9.984;2023-12-29T16:47:12;10.00;99.90
17994;DHT22;9122;48.406;9.984;2023-12-29T16:49:56;10.00;99.90
17994;DHT22;9122;48.406;9.984;2023-12-29T16:52:41;10.00;99.90
17994;DHT22;9122;48.406;9.984;2023-12-29T16:55:25;10.00;99.90
17994;DHT22;9122;48.406;9.984;2023-12-29T16:58:09;10.00;99.90
17994;DHT22;9122;48.406;9.984;2023-12-29T17:00:54;10.00;99.90
17994;DHT22;9122;48.406;9.984;2023-12-29T17:03:38;10.00;99.90
17994;DHT22;9122;48.406;9.984;2023-12-29T17:09:09;10.00;99.80
17994;DHT22;9122;48.406;9.984;2023-12-29T17:11:53;9.90;99.90
17994;DHT22;9122;48.406;9.984;2023-12-29T17:14:38;9.90;99.90
17994;DHT22;9122;48.406;9.984;2023-12-29T17:17:23;9.60;99.90
17994;DHT22;9122;48.406;9.984;2023-12-29T17:20:08;9.90;99.90
17994;DHT22;9122;48.406;9.984;2023-12-29T17:22:53;9.90;99.90
17994;DHT22;9122;48.406;9.984;2023-12-29T17:28:21;9.90;99.90
17994;DHT22;9122;48.406;9.984;2023-12-29T17:31:06;9.90;99.90
17994;DHT22;9122;48.406;9.984;2023-12-29T17:33:50;9.90;99.90
17994;DHT22;9122;48.406;9.984;2023-12-29T17:36:35;9.80;99.90
17994;DHT22;9122;48.406;9.984;2023-12-29T17:42:05;9.80;99.90
17994;DHT22;9122;48.406;9.984;2023-12-29T17:44:50;9.80;99.90
17994;DHT22;9122;48.406;9.984;2023-12-29T17:50:19;9.80;99.90
17994;DHT22;9122;48.406;9.984;2023-12-29T17:53:03;9.80;99.90
17994;DHT22;9122;48.406;9.984;2023-12-29T17:55:47;9.70;99.90
17994;DHT22;9122;48.406;9.984;2023-12-29T17:58:33;11.00;99.90
17994;DHT22;9122;48.406;9.984;2023-12-29T18:01:18;9.70;99.90
17994;DHT22;9122;48.406;9.984;2023-12-29T18:04:02;9.70;99.90
17994;DHT22;9122;48.406;9.984;2023-12-29T18:06:46;9.70;99.90
17994;DHT22;9122;48.406;9.984;2023-12-29T18:12:15;9.60;99.90
17994;DHT22;9122;48.406;9.984;2023-12-29T18:15:00;9.60;99.90
17994;DHT22;9122;48.406;9.984;2023-12-29T18:17:44;9.60;99.90
17994;DHT22;9122;48.406;9.984;2023-12-29T18:20:29;9.60;99.90
17994;DHT22;9122;48.406;9.984;2023-12-29T18:26:00;9.50;99.90
17994;DHT22;9122;48.406;9.984;2023-12-29T18:31:30;9.50;99.90
17994;DHT22;9122;48.406;9.984;2023-12-29T18:34:14;9.50;99.90
17994;DHT22;9122;48.406;9.984;2023-12-29T18:36:58;9.50;99.90
17994;DHT22;9122;48.406;9.984;2023-12-29T18:39:42;9.40;99.90
17994;DHT22;9122;48.406;9.984;2023-12-29T18:45:12;9.30;99.90
17994;DHT22;9122;48.406;9.984;2023-12-29T18:47:57;9.40;99.90
17994;DHT22;9122;48.406;9.984;2023-12-29T18:50:43;9.40;99.90
17994;DHT22;9122;48.406;9.984;2023-12-29T18:53:27;9.30;99.90
17994;DHT22;9122;48.406;9.984;2023-12-29T18:56:13;9.30;99.90
17994;DHT22;9122;48.406;9.984;2023-12-29T18:58:57;9.30;99.90
17994;DHT22;9122;48.406;9.984;2023-12-29T19:01:47;8.90;99.90
17994;DHT22;9122;48.406;9.984;2023-12-29T19:04:31;9.20;99.90
17994;DHT22;9122;48.406;9.984;2023-12-29T19:07:16;9.30;99.90
17994;DHT22;9122;48.406;9.984;2023-12-29T19:10:02;9.30;99.90
17994;DHT22;9122;48.406;9.984;2023-12-29T19:12:47;9.30;99.90
17994;DHT22;9122;48.406;9.984;2023-12-29T19:18:16;9.20;99.90
17994;DHT22;9122;48.406;9.984;2023-12-29T19:21:03;9.20;99.90
17994;DHT22;9122;48.406;9.984;2023-12-29T19:23:47;9.20;99.90
17994;DHT22;9122;48.406;9.984;2023-12-29T19:26:32;9.20;99.90
17994;DHT22;9122;48.406;9.984;2023-12-29T19:29:17;9.20;99.90
17994;DHT22;9122;48.406;9.984;2023-12-29T19:32:02;9.50;99.90
17994;DHT22;9122;48.406;9.984;2023-12-29T19:34:47;9.30;99.90
17994;DHT22;9122;48.406;9.984;2023-12-29T19:37:31;9.10;99.90
17994;DHT22;9122;48.406;9.984;2023-12-29T19:40:15;9.30;99.90
17994;DHT22;9122;48.406;9.984;2023-12-29T19:43:00;9.30;99.90
17994;DHT22;9122;48.406;9.984;2023-12-29T19:45:44;9.20;99.90
17994;DHT22;9122;48.406;9.984;2023-12-29T19:48:28;8.70;99.90
17994;DHT22;9122;48.406;9.984;2023-12-29T19:51:13;9.10;99.90
17994;DHT22;9122;48.406;9.984;2023-12-29T19:53:57;9.40;99.90
17994;DHT22;9122;48.406;9.984;2023-12-29T19:56:42;9.10;99.90
17994;DHT22;9122;48.406;9.984;2023-12-29T19:59:26;9.10;99.90
17994;DHT22;9122;48.406;9.984;2023-12-29T20:02:12;9.00;99.90
17994;DHT22;9122;48.406;9.984;2023-12-29T20:04:57;9.00;99.90
17994;DHT22;9122;48.406;9.984;2023-12-29T20:07:41;9.00;99.90
17994;DHT22;9122;48.406;9.984;2023-12-29T20:10:26;9.00;99.90
17994;DHT22;9122;48.406;9.984;2023-12-29T20:13:10;9.00;99.90
17994;DHT22;9122;48.406;9.984;2023-12-29T20:15:55;9.10;99.90
17994;DHT22;9122;48.406;9.984;2023-12-29T20:18:39;9.00;99.90
17994;DHT22;9122;48.406;9.984;2023-12-29T20:21:25;8.90;99.90
17994;DHT22;9122;48.406;9.984;2023-12-29T20:24:10;8.90;99.90
17994;DHT22;9122;48.406;9.984;2023-12-29T20:26:54;9.00;99.90
17994;DHT22;9122;48.406;9.984;2023-12-29T20:29:39;8.90;99.90
17994;DHT22;9122;48.406;9.984;2023-12-29T20:32:23;8.90;99.90
17994;DHT22;9122;48.406;9.984;2023-12-29T20:35:08;8.90;99.90
17994;DHT22;9122;48.406;9.984;2023-12-29T20:37:52;8.90;99.90
17994;DHT22;9122;48.406;9.984;2023-12-29T20:40:37;9.10;99.90
17994;DHT22;9122;48.406;9.984;2023-12-29T20:43:22;8.80;99.90
17994;DHT22;9122;48.406;9.984;2023-12-29T20:46:06;9.50;99.90
17994;DHT22;9122;48.406;9.984;2023-12-29T20:48:51;8.80;99.90
17994;DHT22;9122;48.406;9.984;2023-12-29T20:51:38;8.80;99.90
17994;DHT22;9122;48.406;9.984;2023-12-29T20:54:22;8.80;99.90
17994;DHT22;9122;48.406;9.984;2023-12-29T20:57:07;9.80;99.90
17994;DHT22;9122;48.406;9.984;2023-12-29T20:59:52;8.80;99.90
17994;DHT22;9122;48.406;9.984;2023-12-29T21:02:36;8.70;99.90
17994;DHT22;9122;48.406;9.984;2023-12-29T21:05:21;8.70;99.90
17994;DHT22;9122;48.406;9.984;2023-12-29T21:08:05;8.70;99.90
17994;DHT22;9122;48.406;9.984;2023-12-29T21:10:50;8.70;99.90